Airfield :
LOGIN :

Register | Disclaimer

   EN    FR    IT 

 










Legend :    VFR   Marginal VFR   IFR   Intensive IFR   Very Intensive IFR
Visi :
Ceiling :
>= 8 km
>= 3000ft
5 to 8 km
1000 to 3000 ft
1500m to 5 km
500 to 1000 ft
800 to 1500m
200 to 500 ft
< 800m
< 200 ft
Symbols :   Thunderstorms  Fog  Heavy snow  Heavy precipitations  Wind > 20 kt
SIGMETs :     Misc.  Thunderstorms  Icing  Turbulence  Mountain Waves  Volcanic Ashes






- Airport Elevation : 2020 ft
- IATA code : DAM


OSDI - Damascus Int.

CURRENT METAR :
  • 291200Z 291200Z25916KT 9999 FEW030 SCT100 10/03 Q1010

EXPIRED METARs :
  • 291100Z 26035KT 9999 FEW030 SCT100 16/04 Q1010

TAF OSDI
Valid from the 29 at 06:00 until the 01 at 12:00 UTC


290400Z 2906/0112 22010KT 9999 FEW030
TEMPO 2918/0106 22020G30KT 6000 SHRA FEW025 CB SCT030 BKN100



MET'MAP, your aeronautical weather chart ! - Copyright ORBIFLY December 2007 - Disclaimer

ORBIFLY MET'MAP TEAM :

Programming & Development : Alexandra Zaïnal
Concept & original design : Baudouin d'Aumeries
Assistance for programming : Marc-Olivier Méhu
Technical & hardware support : Manuel Goepfert

Contact : metmap@orbifly.com




SOURCES & CREDITS :

   NOAA